»·PEaware :: N145BE KSNA-KSNA

N145BE :: KSNA-KSNA

FLIGHT INFORMATION

Flight Status: Arrived
Operator: Privately registered:
United States
More flights under this callsign
Pilot: Santiago S. (22950)
Aircraft: BEECH AIRCRAFT BARON
(BE58)
More flights by this aircraft type
Origin: KSNA John Wayne-Orange Co
United States
Destination: KSNA John Wayne-Orange Co
United States
More flights between these airports :: More routes between these airports
Route: +SLI
File this flight plan on PilotEdge
Remarks:
Altitude:
(Current/Filed)
3,000ft
Speed:
(Current/Filed)
0kts
Departed: 10-Feb-19 06:13 PM
Arrived: 10-Feb-19 06:36 PM
Distance/Time
Traveled:
0nm/0:23
Distance/Time
To Go:
Arrived

Flight Plot

Page will automatically refresh every two minutes.


Map Options




Map Legend


Flown Route
Filed Route
Departure Airport
Arrival Airport
Navaid (VOR, NDB)
Fix

Horizontal Profiles

Position Reports

Time Latitude Longitude Heading Altitude Ground
Speed
10-Feb-19 17:33 33.682387 -117.860315 118 0ft 0kts
10-Feb-19 17:34 33.682387 -117.860315 118 0ft 0kts
10-Feb-19 17:35 33.682387 -117.860315 118 0ft 0kts
10-Feb-19 17:36 33.682387 -117.860315 118 0ft 0kts
10-Feb-19 17:37 33.682269 -117.861196 239 0ft 14kts
10-Feb-19 17:38 33.679818 -117.862806 204 0ft 28kts
10-Feb-19 17:39 33.674207 -117.866378 209 0ft 28kts
10-Feb-19 17:40 33.671676 -117.868413 211 0ft 35kts
10-Feb-19 17:41 33.668878 -117.871196 222 0ft 21kts
10-Feb-19 17:42 33.665253 -117.874258 216 0ft 34kts
10-Feb-19 17:43 33.667250 -117.872936 19 0ft 19kts
10-Feb-19 17:44 33.667535 -117.873021 310 0ft 0kts
10-Feb-19 17:53 33.674736 -117.872064 167 1ft 0kts
10-Feb-19 17:54 33.674736 -117.872064 167 1ft 0kts
10-Feb-19 17:55 33.674736 -117.872064 167 1ft 0kts
10-Feb-19 17:56 33.674736 -117.872064 167 1ft 0kts
10-Feb-19 17:57 33.674736 -117.872064 167 1ft 0kts
10-Feb-19 17:58 33.674736 -117.872064 167 1ft 0kts
10-Feb-19 17:59 33.674736 -117.872064 167 1ft 0kts
10-Feb-19 18:00 33.674736 -117.872064 167 1ft 0kts
10-Feb-19 18:01 33.673974 -117.871555 133 0ft 1kts
10-Feb-19 18:02 33.673869 -117.871423 145 1ft 0kts
10-Feb-19 18:03 33.671887 -117.872704 208 0ft 0kts
10-Feb-19 18:04 33.672423 -117.872301 38 0ft 0kts
10-Feb-19 18:05 33.674569 -117.870937 28 0ft 29kts
10-Feb-19 18:06 33.677712 -117.868899 24 0ft 27kts
10-Feb-19 18:07 33.681209 -117.866624 71 0ft 8kts
10-Feb-19 18:08 33.681197 -117.866367 115 0ft 0kts
10-Feb-19 18:09 33.681197 -117.866367 115 0ft 0kts
10-Feb-19 18:10 33.681197 -117.866367 115 0ft 0kts
10-Feb-19 18:11 33.680908 -117.865790 141 0ft 13kts
10-Feb-19 18:12 33.661634 -117.880485 229 451ft 139kts
10-Feb-19 18:13 33.637677 -117.917891 212 1364ft 149kts
10-Feb-19 18:14 33.617412 -117.960195 242 1896ft 162kts
10-Feb-19 18:15 33.596200 -118.010814 243 1885ft 175kts
10-Feb-19 18:16 33.576900 -118.057064 242 2182ft 164kts
10-Feb-19 18:17 33.558340 -118.105601 266 2625ft 161kts
10-Feb-19 18:18 33.591969 -118.124018 8 2868ft 158kts
10-Feb-19 18:19 33.637192 -118.119221 21 2859ft 165kts
10-Feb-19 18:20 33.677671 -118.094647 30 2869ft 164kts
10-Feb-19 18:21 33.716886 -118.069278 31 2873ft 164kts
10-Feb-19 18:22 33.755751 -118.041875 40 2875ft 163kts
10-Feb-19 18:23 33.789878 -118.008569 41 2881ft 172kts
10-Feb-19 18:24 33.827677 -117.971226 40 2885ft 176kts
10-Feb-19 18:25 33.866106 -117.940650 33 2888ft 177kts
10-Feb-19 18:26 33.907770 -117.908786 33 2890ft 178kts
10-Feb-19 18:27 33.918060 -117.855920 90 2893ft 174kts
10-Feb-19 18:28 33.906550 -117.801278 120 2894ft 174kts
10-Feb-19 18:29 33.878114 -117.757450 166 2891ft 171kts
10-Feb-19 18:30 33.832372 -117.768927 208 2896ft 173kts
10-Feb-19 18:31 33.789951 -117.796308 207 2407ft 174kts
10-Feb-19 18:32 33.748684 -117.822514 207 1518ft 165kts
10-Feb-19 18:33 33.710079 -117.847014 207 656ft 136kts
10-Feb-19 18:34 33.683223 -117.864011 208 61ft 106kts
10-Feb-19 18:35 33.672327 -117.871619 264 0ft 4kts
10-Feb-19 18:36 33.672376 -117.871795 324 0ft 0kts

Navigation Log

Ident Type
Flight plan parsing failed, navigation log unavailable